sensor_id;sensor_type;location;lat;lon;timestamp;P1;durP1;ratioP1;P2;durP2;ratioP2
37535;SDS011;23379;51.554;6.736;2024-02-26T00:01:26;3.08;;;2.70;;
37535;SDS011;23379;51.554;6.736;2024-02-26T00:03:52;3.50;;;2.35;;
37535;SDS011;23379;51.554;6.736;2024-02-26T00:06:19;2.80;;;2.28;;
37535;SDS011;23379;51.554;6.736;2024-02-26T00:08:44;4.18;;;2.40;;
37535;SDS011;23379;51.554;6.736;2024-02-26T00:11:10;4.07;;;2.65;;
37535;SDS011;23379;51.554;6.736;2024-02-26T00:13:35;3.70;;;2.67;;
37535;SDS011;23379;51.554;6.736;2024-02-26T00:16:02;2.55;;;2.35;;
37535;SDS011;23379;51.554;6.736;2024-02-26T00:18:28;3.13;;;2.55;;
37535;SDS011;23379;51.554;6.736;2024-02-26T00:20:54;3.10;;;2.40;;
37535;SDS011;23379;51.554;6.736;2024-02-26T00:23:19;2.70;;;2.45;;
37535;SDS011;23379;51.554;6.736;2024-02-26T00:25:44;3.40;;;2.40;;
37535;SDS011;23379;51.554;6.736;2024-02-26T00:28:10;4.75;;;2.58;;
37535;SDS011;23379;51.554;6.736;2024-02-26T00:30:35;3.78;;;2.45;;
37535;SDS011;23379;51.554;6.736;2024-02-26T00:33:01;2.53;;;2.30;;
37535;SDS011;23379;51.554;6.736;2024-02-26T00:35:26;2.88;;;2.67;;
37535;SDS011;23379;51.554;6.736;2024-02-26T00:37:52;3.03;;;2.53;;
37535;SDS011;23379;51.554;6.736;2024-02-26T00:40:18;3.38;;;2.65;;
37535;SDS011;23379;51.554;6.736;2024-02-26T00:42:43;2.40;;;2.20;;
37535;SDS011;23379;51.554;6.736;2024-02-26T00:45:11;3.10;;;2.50;;
37535;SDS011;23379;51.554;6.736;2024-02-26T00:47:37;3.22;;;2.40;;
37535;SDS011;23379;51.554;6.736;2024-02-26T00:50:02;3.60;;;2.65;;
37535;SDS011;23379;51.554;6.736;2024-02-26T00:52:28;2.63;;;2.40;;
37535;SDS011;23379;51.554;6.736;2024-02-26T00:54:53;2.85;;;2.10;;
37535;SDS011;23379;51.554;6.736;2024-02-26T00:57:18;3.72;;;2.55;;
37535;SDS011;23379;51.554;6.736;2024-02-26T00:59:44;2.97;;;2.67;;
37535;SDS011;23379;51.554;6.736;2024-02-26T01:02:09;5.43;;;2.35;;
37535;SDS011;23379;51.554;6.736;2024-02-26T01:04:34;2.30;;;2.10;;
37535;SDS011;23379;51.554;6.736;2024-02-26T01:07:00;4.80;;;2.58;;
37535;SDS011;23379;51.554;6.736;2024-02-26T01:09:25;5.07;;;2.45;;
37535;SDS011;23379;51.554;6.736;2024-02-26T01:11:50;3.75;;;2.85;;
37535;SDS011;23379;51.554;6.736;2024-02-26T01:14:16;4.80;;;2.75;;
37535;SDS011;23379;51.554;6.736;2024-02-26T01:16:41;4.07;;;2.80;;
37535;SDS011;23379;51.554;6.736;2024-02-26T01:19:06;3.83;;;2.47;;
37535;SDS011;23379;51.554;6.736;2024-02-26T01:21:32;4.97;;;3.00;;
37535;SDS011;23379;51.554;6.736;2024-02-26T01:23:57;4.28;;;2.83;;
37535;SDS011;23379;51.554;6.736;2024-02-26T01:26:22;4.38;;;2.70;;
37535;SDS011;23379;51.554;6.736;2024-02-26T01:28:48;5.25;;;3.17;;
37535;SDS011;23379;51.554;6.736;2024-02-26T01:31:13;3.33;;;2.75;;
37535;SDS011;23379;51.554;6.736;2024-02-26T01:33:39;3.60;;;2.53;;
37535;SDS011;23379;51.554;6.736;2024-02-26T01:36:05;4.40;;;2.63;;
37535;SDS011;23379;51.554;6.736;2024-02-26T01:38:30;4.47;;;2.95;;
37535;SDS011;23379;51.554;6.736;2024-02-26T01:40:56;2.97;;;2.75;;
37535;SDS011;23379;51.554;6.736;2024-02-26T01:43:21;3.05;;;2.75;;
37535;SDS011;23379;51.554;6.736;2024-02-26T01:45:47;4.65;;;3.00;;
37535;SDS011;23379;51.554;6.736;2024-02-26T01:48:12;4.10;;;2.67;;
37535;SDS011;23379;51.554;6.736;2024-02-26T01:50:37;3.38;;;2.80;;
37535;SDS011;23379;51.554;6.736;2024-02-26T01:53:03;3.72;;;2.85;;
37535;SDS011;23379;51.554;6.736;2024-02-26T01:55:29;3.75;;;2.47;;
37535;SDS011;23379;51.554;6.736;2024-02-26T01:57:55;4.63;;;2.72;;
37535;SDS011;23379;51.554;6.736;2024-02-26T02:00:20;3.88;;;2.70;;
37535;SDS011;23379;51.554;6.736;2024-02-26T02:02:47;4.15;;;2.75;;
37535;SDS011;23379;51.554;6.736;2024-02-26T02:05:14;4.90;;;2.70;;
37535;SDS011;23379;51.554;6.736;2024-02-26T02:07:41;5.05;;;2.50;;
37535;SDS011;23379;51.554;6.736;2024-02-26T02:10:06;3.95;;;2.72;;
37535;SDS011;23379;51.554;6.736;2024-02-26T02:12:32;3.47;;;2.60;;
37535;SDS011;23379;51.554;6.736;2024-02-26T02:14:59;4.80;;;2.70;;
37535;SDS011;23379;51.554;6.736;2024-02-26T02:17:25;11.40;;;3.10;;
37535;SDS011;23379;51.554;6.736;2024-02-26T02:19:52;5.00;;;3.35;;
37535;SDS011;23379;51.554;6.736;2024-02-26T02:22:18;8.07;;;4.25;;
37535;SDS011;23379;51.554;6.736;2024-02-26T02:24:43;3.42;;;2.78;;
37535;SDS011;23379;51.554;6.736;2024-02-26T02:27:08;3.50;;;2.80;;
37535;SDS011;23379;51.554;6.736;2024-02-26T02:29:34;3.58;;;2.88;;
37535;SDS011;23379;51.554;6.736;2024-02-26T02:32:00;5.82;;;3.50;;
37535;SDS011;23379;51.554;6.736;2024-02-26T02:34:26;5.50;;;3.92;;
37535;SDS011;23379;51.554;6.736;2024-02-26T02:36:53;5.90;;;3.00;;
37535;SDS011;23379;51.554;6.736;2024-02-26T02:39:19;4.18;;;2.75;;
37535;SDS011;23379;51.554;6.736;2024-02-26T02:41:45;6.05;;;3.72;;
37535;SDS011;23379;51.554;6.736;2024-02-26T02:44:10;5.10;;;2.80;;
37535;SDS011;23379;51.554;6.736;2024-02-26T02:46:36;3.85;;;2.50;;
37535;SDS011;23379;51.554;6.736;2024-02-26T02:49:02;2.40;;;2.20;;
37535;SDS011;23379;51.554;6.736;2024-02-26T02:51:27;3.55;;;2.55;;
37535;SDS011;23379;51.554;6.736;2024-02-26T02:53:52;5.50;;;2.67;;
37535;SDS011;23379;51.554;6.736;2024-02-26T02:56:18;4.93;;;2.88;;
37535;SDS011;23379;51.554;6.736;2024-02-26T02:58:43;4.85;;;2.65;;
37535;SDS011;23379;51.554;6.736;2024-02-26T03:01:09;4.20;;;2.60;;
37535;SDS011;23379;51.554;6.736;2024-02-26T03:03:34;3.45;;;2.60;;
37535;SDS011;23379;51.554;6.736;2024-02-26T03:06:01;4.70;;;3.10;;
37535;SDS011;23379;51.554;6.736;2024-02-26T03:08:27;5.57;;;3.05;;
37535;SDS011;23379;51.554;6.736;2024-02-26T03:10:52;6.20;;;2.67;;
37535;SDS011;23379;51.554;6.736;2024-02-26T03:13:18;3.28;;;2.50;;
37535;SDS011;23379;51.554;6.736;2024-02-26T03:15:46;3.30;;;2.28;;
37535;SDS011;23379;51.554;6.736;2024-02-26T03:18:11;3.65;;;2.65;;
37535;SDS011;23379;51.554;6.736;2024-02-26T03:20:36;3.80;;;2.50;;
37535;SDS011;23379;51.554;6.736;2024-02-26T03:23:02;3.05;;;2.75;;
37535;SDS011;23379;51.554;6.736;2024-02-26T03:25:27;4.47;;;3.03;;
37535;SDS011;23379;51.554;6.736;2024-02-26T03:27:53;2.78;;;2.38;;
37535;SDS011;23379;51.554;6.736;2024-02-26T03:30:18;3.85;;;2.85;;
37535;SDS011;23379;51.554;6.736;2024-02-26T03:32:43;3.47;;;3.00;;
37535;SDS011;23379;51.554;6.736;2024-02-26T03:35:09;5.78;;;3.20;;
37535;SDS011;23379;51.554;6.736;2024-02-26T03:37:34;10.05;;;3.80;;
37535;SDS011;23379;51.554;6.736;2024-02-26T03:39:59;3.05;;;2.38;;
37535;SDS011;23379;51.554;6.736;2024-02-26T03:42:26;5.78;;;2.80;;
37535;SDS011;23379;51.554;6.736;2024-02-26T03:44:51;2.75;;;2.33;;
37535;SDS011;23379;51.554;6.736;2024-02-26T03:47:17;3.08;;;2.50;;
37535;SDS011;23379;51.554;6.736;2024-02-26T03:49:42;6.97;;;3.45;;
37535;SDS011;23379;51.554;6.736;2024-02-26T03:52:07;5.55;;;2.90;;
37535;SDS011;23379;51.554;6.736;2024-02-26T03:54:33;7.00;;;3.65;;
37535;SDS011;23379;51.554;6.736;2024-02-26T03:56:58;12.70;;;4.53;;
37535;SDS011;23379;51.554;6.736;2024-02-26T03:59:23;7.93;;;3.80;;
37535;SDS011;23379;51.554;6.736;2024-02-26T04:01:50;9.18;;;4.30;;
37535;SDS011;23379;51.554;6.736;2024-02-26T04:04:16;15.70;;;6.85;;
37535;SDS011;23379;51.554;6.736;2024-02-26T04:06:45;12.35;;;5.32;;
37535;SDS011;23379;51.554;6.736;2024-02-26T04:09:11;3.83;;;3.13;;
37535;SDS011;23379;51.554;6.736;2024-02-26T04:11:37;4.45;;;3.13;;
37535;SDS011;23379;51.554;6.736;2024-02-26T04:14:03;7.32;;;3.72;;
37535;SDS011;23379;51.554;6.736;2024-02-26T04:16:28;4.53;;;3.55;;
37535;SDS011;23379;51.554;6.736;2024-02-26T04:18:54;4.03;;;2.90;;
37535;SDS011;23379;51.554;6.736;2024-02-26T04:21:19;13.35;;;5.80;;
37535;SDS011;23379;51.554;6.736;2024-02-26T04:23:45;6.93;;;4.15;;
37535;SDS011;23379;51.554;6.736;2024-02-26T04:26:10;7.35;;;4.22;;
37535;SDS011;23379;51.554;6.736;2024-02-26T04:28:36;11.02;;;5.63;;
37535;SDS011;23379;51.554;6.736;2024-02-26T04:31:01;10.63;;;6.00;;
37535;SDS011;23379;51.554;6.736;2024-02-26T04:33:27;9.57;;;4.10;;
37535;SDS011;23379;51.554;6.736;2024-02-26T04:35:52;5.78;;;3.42;;
37535;SDS011;23379;51.554;6.736;2024-02-26T04:38:17;5.45;;;3.25;;
37535;SDS011;23379;51.554;6.736;2024-02-26T04:40:43;3.50;;;2.90;;
37535;SDS011;23379;51.554;6.736;2024-02-26T04:43:08;4.60;;;3.72;;
37535;SDS011;23379;51.554;6.736;2024-02-26T04:45:34;5.43;;;3.63;;
37535;SDS011;23379;51.554;6.736;2024-02-26T04:47:59;3.42;;;2.83;;
37535;SDS011;23379;51.554;6.736;2024-02-26T04:50:25;6.38;;;3.45;;
37535;SDS011;23379;51.554;6.736;2024-02-26T04:52:50;6.35;;;2.67;;
37535;SDS011;23379;51.554;6.736;2024-02-26T04:55:15;19.33;;;5.65;;
37535;SDS011;23379;51.554;6.736;2024-02-26T04:57:41;23.60;;;7.18;;
37535;SDS011;23379;51.554;6.736;2024-02-26T05:00:06;8.38;;;5.07;;
37535;SDS011;23379;51.554;6.736;2024-02-26T05:02:33;8.68;;;3.05;;
37535;SDS011;23379;51.554;6.736;2024-02-26T05:05:02;6.80;;;3.60;;
37535;SDS011;23379;51.554;6.736;2024-02-26T05:07:29;5.47;;;2.90;;
37535;SDS011;23379;51.554;6.736;2024-02-26T05:09:54;5.05;;;3.30;;
37535;SDS011;23379;51.554;6.736;2024-02-26T05:12:20;5.50;;;3.65;;
37535;SDS011;23379;51.554;6.736;2024-02-26T05:14:46;3.80;;;3.10;;
37535;SDS011;23379;51.554;6.736;2024-02-26T05:17:11;10.43;;;3.97;;
37535;SDS011;23379;51.554;6.736;2024-02-26T05:19:37;4.85;;;3.15;;
37535;SDS011;23379;51.554;6.736;2024-02-26T05:22:02;10.10;;;4.10;;
37535;SDS011;23379;51.554;6.736;2024-02-26T05:24:27;3.60;;;3.10;;
37535;SDS011;23379;51.554;6.736;2024-02-26T05:26:53;4.10;;;3.10;;
37535;SDS011;23379;51.554;6.736;2024-02-26T05:29:19;4.55;;;2.75;;
37535;SDS011;23379;51.554;6.736;2024-02-26T05:31:45;5.35;;;2.60;;
37535;SDS011;23379;51.554;6.736;2024-02-26T05:34:10;4.07;;;3.20;;
37535;SDS011;23379;51.554;6.736;2024-02-26T05:36:35;3.40;;;3.10;;
37535;SDS011;23379;51.554;6.736;2024-02-26T05:39:01;7.13;;;3.13;;
37535;SDS011;23379;51.554;6.736;2024-02-26T05:41:26;5.13;;;3.40;;
37535;SDS011;23379;51.554;6.736;2024-02-26T05:43:52;3.75;;;2.92;;
37535;SDS011;23379;51.554;6.736;2024-02-26T05:46:18;3.72;;;3.33;;
37535;SDS011;23379;51.554;6.736;2024-02-26T05:48:44;4.18;;;3.13;;
37535;SDS011;23379;51.554;6.736;2024-02-26T05:51:11;4.70;;;3.45;;
37535;SDS011;23379;51.554;6.736;2024-02-26T05:53:37;16.90;;;4.50;;
37535;SDS011;23379;51.554;6.736;2024-02-26T05:56:02;4.55;;;3.33;;
37535;SDS011;23379;51.554;6.736;2024-02-26T05:58:28;7.03;;;4.22;;
37535;SDS011;23379;51.554;6.736;2024-02-26T06:00:54;3.55;;;3.25;;
37535;SDS011;23379;51.554;6.736;2024-02-26T06:03:19;4.60;;;3.53;;
37535;SDS011;23379;51.554;6.736;2024-02-26T06:05:45;3.90;;;3.40;;
37535;SDS011;23379;51.554;6.736;2024-02-26T06:08:11;10.20;;;4.05;;
37535;SDS011;23379;51.554;6.736;2024-02-26T06:10:36;5.57;;;3.70;;
37535;SDS011;23379;51.554;6.736;2024-02-26T06:13:01;10.13;;;4.55;;
37535;SDS011;23379;51.554;6.736;2024-02-26T06:15:27;3.20;;;2.90;;
37535;SDS011;23379;51.554;6.736;2024-02-26T06:17:52;3.75;;;3.17;;
37535;SDS011;23379;51.554;6.736;2024-02-26T06:20:18;7.63;;;3.78;;
37535;SDS011;23379;51.554;6.736;2024-02-26T06:22:43;3.72;;;3.08;;
37535;SDS011;23379;51.554;6.736;2024-02-26T06:25:08;4.25;;;3.40;;
37535;SDS011;23379;51.554;6.736;2024-02-26T06:27:34;4.50;;;3.55;;
37535;SDS011;23379;51.554;6.736;2024-02-26T06:30:00;5.88;;;3.53;;
37535;SDS011;23379;51.554;6.736;2024-02-26T06:32:25;4.95;;;3.20;;
37535;SDS011;23379;51.554;6.736;2024-02-26T06:34:52;6.15;;;3.33;;
37535;SDS011;23379;51.554;6.736;2024-02-26T06:37:18;5.20;;;3.25;;
37535;SDS011;23379;51.554;6.736;2024-02-26T06:39:43;3.90;;;3.30;;
37535;SDS011;23379;51.554;6.736;2024-02-26T06:42:08;5.00;;;3.50;;
37535;SDS011;23379;51.554;6.736;2024-02-26T06:44:34;4.78;;;3.30;;
37535;SDS011;23379;51.554;6.736;2024-02-26T06:46:59;4.32;;;3.17;;
37535;SDS011;23379;51.554;6.736;2024-02-26T06:49:25;3.92;;;3.15;;
37535;SDS011;23379;51.554;6.736;2024-02-26T06:51:51;3.83;;;3.47;;
37535;SDS011;23379;51.554;6.736;2024-02-26T06:54:16;3.30;;;3.00;;
37535;SDS011;23379;51.554;6.736;2024-02-26T06:56:42;5.75;;;3.22;;
37535;SDS011;23379;51.554;6.736;2024-02-26T06:59:07;9.00;;;3.60;;
37535;SDS011;23379;51.554;6.736;2024-02-26T07:01:32;6.35;;;3.13;;
37535;SDS011;23379;51.554;6.736;2024-02-26T07:03:58;3.45;;;3.15;;
37535;SDS011;23379;51.554;6.736;2024-02-26T07:06:23;3.05;;;2.83;;
37535;SDS011;23379;51.554;6.736;2024-02-26T07:08:48;4.50;;;3.20;;
37535;SDS011;23379;51.554;6.736;2024-02-26T07:11:15;4.20;;;3.65;;
37535;SDS011;23379;51.554;6.736;2024-02-26T07:13:40;3.30;;;3.00;;
37535;SDS011;23379;51.554;6.736;2024-02-26T07:16:05;5.05;;;3.20;;
37535;SDS011;23379;51.554;6.736;2024-02-26T07:18:33;5.00;;;3.22;;
37535;SDS011;23379;51.554;6.736;2024-02-26T07:21:01;3.40;;;2.67;;
37535;SDS011;23379;51.554;6.736;2024-02-26T07:23:27;4.20;;;3.25;;
37535;SDS011;23379;51.554;6.736;2024-02-26T07:25:52;4.45;;;3.30;;
37535;SDS011;23379;51.554;6.736;2024-02-26T07:28:18;7.55;;;3.10;;
37535;SDS011;23379;51.554;6.736;2024-02-26T07:30:44;4.43;;;3.00;;
37535;SDS011;23379;51.554;6.736;2024-02-26T07:33:10;4.22;;;2.90;;
37535;SDS011;23379;51.554;6.736;2024-02-26T07:35:35;3.78;;;2.67;;
37535;SDS011;23379;51.554;6.736;2024-02-26T07:38:01;3.50;;;3.00;;
37535;SDS011;23379;51.554;6.736;2024-02-26T07:40:27;5.13;;;3.13;;
37535;SDS011;23379;51.554;6.736;2024-02-26T07:42:52;3.22;;;2.97;;
37535;SDS011;23379;51.554;6.736;2024-02-26T07:45:17;4.20;;;2.70;;
37535;SDS011;23379;51.554;6.736;2024-02-26T07:47:45;4.20;;;2.92;;
37535;SDS011;23379;51.554;6.736;2024-02-26T07:50:11;3.20;;;2.95;;
37535;SDS011;23379;51.554;6.736;2024-02-26T07:52:37;4.70;;;2.97;;
37535;SDS011;23379;51.554;6.736;2024-02-26T07:55:02;3.67;;;2.90;;
37535;SDS011;23379;51.554;6.736;2024-02-26T07:57:28;3.63;;;2.80;;
37535;SDS011;23379;51.554;6.736;2024-02-26T07:59:53;3.17;;;2.88;;
37535;SDS011;23379;51.554;6.736;2024-02-26T08:02:19;2.70;;;2.50;;
37535;SDS011;23379;51.554;6.736;2024-02-26T08:04:44;3.30;;;3.00;;
37535;SDS011;23379;51.554;6.736;2024-02-26T08:07:10;3.83;;;2.78;;
37535;SDS011;23379;51.554;6.736;2024-02-26T08:09:35;2.95;;;2.67;;
37535;SDS011;23379;51.554;6.736;2024-02-26T08:12:00;3.20;;;2.90;;
37535;SDS011;23379;51.554;6.736;2024-02-26T08:14:26;2.90;;;2.70;;
37535;SDS011;23379;51.554;6.736;2024-02-26T08:16:51;4.13;;;2.60;;
37535;SDS011;23379;51.554;6.736;2024-02-26T08:19:16;3.90;;;2.75;;
37535;SDS011;23379;51.554;6.736;2024-02-26T08:21:42;3.05;;;2.50;;
37535;SDS011;23379;51.554;6.736;2024-02-26T08:24:08;5.10;;;3.15;;
37535;SDS011;23379;51.554;6.736;2024-02-26T08:26:33;5.55;;;3.08;;
37535;SDS011;23379;51.554;6.736;2024-02-26T08:28:59;6.78;;;3.10;;
37535;SDS011;23379;51.554;6.736;2024-02-26T08:31:24;4.50;;;2.78;;
37535;SDS011;23379;51.554;6.736;2024-02-26T08:33:49;3.60;;;3.20;;
37535;SDS011;23379;51.554;6.736;2024-02-26T08:36:15;3.08;;;2.88;;
37535;SDS011;23379;51.554;6.736;2024-02-26T08:38:40;4.65;;;3.38;;
37535;SDS011;23379;51.554;6.736;2024-02-26T08:41:06;4.30;;;3.42;;
37535;SDS011;23379;51.554;6.736;2024-02-26T08:43:31;4.13;;;3.72;;
37535;SDS011;23379;51.554;6.736;2024-02-26T08:45:57;4.35;;;3.17;;
37535;SDS011;23379;51.554;6.736;2024-02-26T08:48:22;3.15;;;2.83;;
37535;SDS011;23379;51.554;6.736;2024-02-26T08:50:48;6.10;;;3.40;;
37535;SDS011;23379;51.554;6.736;2024-02-26T08:53:13;4.55;;;3.25;;
37535;SDS011;23379;51.554;6.736;2024-02-26T08:55:38;3.83;;;3.38;;
37535;SDS011;23379;51.554;6.736;2024-02-26T08:58:04;4.28;;;3.20;;
37535;SDS011;23379;51.554;6.736;2024-02-26T09:00:29;3.30;;;3.00;;
37535;SDS011;23379;51.554;6.736;2024-02-26T09:02:55;3.42;;;2.95;;
37535;SDS011;23379;51.554;6.736;2024-02-26T09:05:21;4.97;;;3.33;;
37535;SDS011;23379;51.554;6.736;2024-02-26T09:07:46;3.20;;;2.97;;
37535;SDS011;23379;51.554;6.736;2024-02-26T09:10:12;3.70;;;3.40;;
37535;SDS011;23379;51.554;6.736;2024-02-26T09:12:37;4.60;;;3.40;;
37535;SDS011;23379;51.554;6.736;2024-02-26T09:15:06;5.43;;;2.95;;
37535;SDS011;23379;51.554;6.736;2024-02-26T09:17:32;3.95;;;3.55;;
37535;SDS011;23379;51.554;6.736;2024-02-26T09:19:57;8.40;;;3.15;;
37535;SDS011;23379;51.554;6.736;2024-02-26T09:22:23;29.50;;;10.80;;
37535;SDS011;23379;51.554;6.736;2024-02-26T09:24:48;17.15;;;7.85;;
37535;SDS011;23379;51.554;6.736;2024-02-26T09:27:15;32.70;;;10.43;;
37535;SDS011;23379;51.554;6.736;2024-02-26T09:29:41;42.50;;;12.85;;
37535;SDS011;23379;51.554;6.736;2024-02-26T09:32:07;67.07;;;21.00;;
37535;SDS011;23379;51.554;6.736;2024-02-26T09:34:32;65.63;;;18.38;;
37535;SDS011;23379;51.554;6.736;2024-02-26T09:36:58;35.53;;;11.00;;
37535;SDS011;23379;51.554;6.736;2024-02-26T09:39:24;16.58;;;6.63;;
37535;SDS011;23379;51.554;6.736;2024-02-26T09:41:49;39.10;;;11.23;;
37535;SDS011;23379;51.554;6.736;2024-02-26T09:44:15;29.55;;;9.48;;
37535;SDS011;23379;51.554;6.736;2024-02-26T09:46:44;49.75;;;14.93;;
37535;SDS011;23379;51.554;6.736;2024-02-26T09:49:10;55.45;;;15.75;;
37535;SDS011;23379;51.554;6.736;2024-02-26T09:51:37;20.67;;;7.03;;
37535;SDS011;23379;51.554;6.736;2024-02-26T09:54:03;5.28;;;3.88;;
37535;SDS011;23379;51.554;6.736;2024-02-26T09:56:29;28.92;;;9.20;;
37535;SDS011;23379;51.554;6.736;2024-02-26T09:58:55;6.47;;;4.40;;
37535;SDS011;23379;51.554;6.736;2024-02-26T10:01:22;12.20;;;5.63;;
37535;SDS011;23379;51.554;6.736;2024-02-26T10:03:55;15.40;;;5.82;;
37535;SDS011;23379;51.554;6.736;2024-02-26T10:06:22;10.57;;;5.00;;
37535;SDS011;23379;51.554;6.736;2024-02-26T10:08:49;12.07;;;5.75;;
37535;SDS011;23379;51.554;6.736;2024-02-26T10:11:15;6.10;;;3.85;;
37535;SDS011;23379;51.554;6.736;2024-02-26T10:13:41;39.58;;;11.68;;
37535;SDS011;23379;51.554;6.736;2024-02-26T10:16:06;9.40;;;4.88;;
37535;SDS011;23379;51.554;6.736;2024-02-26T10:18:45;8.57;;;4.95;;
37535;SDS011;23379;51.554;6.736;2024-02-26T10:21:12;11.45;;;4.68;;
37535;SDS011;23379;51.554;6.736;2024-02-26T10:23:37;27.65;;;10.10;;
37535;SDS011;23379;51.554;6.736;2024-02-26T10:26:02;17.90;;;7.78;;
37535;SDS011;23379;51.554;6.736;2024-02-26T10:28:29;32.67;;;12.40;;
37535;SDS011;23379;51.554;6.736;2024-02-26T10:30:54;20.30;;;8.63;;
37535;SDS011;23379;51.554;6.736;2024-02-26T10:33:20;49.45;;;17.98;;
37535;SDS011;23379;51.554;6.736;2024-02-26T10:35:48;27.05;;;11.20;;
37535;SDS011;23379;51.554;6.736;2024-02-26T10:38:14;38.40;;;13.18;;
37535;SDS011;23379;51.554;6.736;2024-02-26T10:40:42;50.65;;;16.30;;
37535;SDS011;23379;51.554;6.736;2024-02-26T10:43:08;7.18;;;4.68;;
37535;SDS011;23379;51.554;6.736;2024-02-26T10:45:33;14.05;;;7.50;;
37535;SDS011;23379;51.554;6.736;2024-02-26T10:47:59;12.13;;;6.10;;
37535;SDS011;23379;51.554;6.736;2024-02-26T10:50:25;17.88;;;7.70;;
37535;SDS011;23379;51.554;6.736;2024-02-26T10:52:51;18.85;;;8.38;;
37535;SDS011;23379;51.554;6.736;2024-02-26T10:55:17;24.45;;;10.00;;
37535;SDS011;23379;51.554;6.736;2024-02-26T10:57:43;16.88;;;8.15;;
37535;SDS011;23379;51.554;6.736;2024-02-26T11:00:11;6.90;;;4.88;;
37535;SDS011;23379;51.554;6.736;2024-02-26T11:02:40;17.35;;;8.52;;
37535;SDS011;23379;51.554;6.736;2024-02-26T11:05:06;16.85;;;8.45;;
37535;SDS011;23379;51.554;6.736;2024-02-26T11:07:36;14.60;;;8.05;;
37535;SDS011;23379;51.554;6.736;2024-02-26T11:10:02;31.38;;;12.52;;
37535;SDS011;23379;51.554;6.736;2024-02-26T11:12:29;13.10;;;8.15;;
37535;SDS011;23379;51.554;6.736;2024-02-26T11:14:56;22.35;;;9.82;;
37535;SDS011;23379;51.554;6.736;2024-02-26T11:17:25;12.68;;;7.43;;
37535;SDS011;23379;51.554;6.736;2024-02-26T11:19:53;20.02;;;10.02;;
37535;SDS011;23379;51.554;6.736;2024-02-26T11:22:20;17.38;;;8.50;;
37535;SDS011;23379;51.554;6.736;2024-02-26T11:24:47;13.65;;;7.28;;
37535;SDS011;23379;51.554;6.736;2024-02-26T11:27:13;13.82;;;8.15;;
37535;SDS011;23379;51.554;6.736;2024-02-26T11:29:43;10.27;;;7.03;;
37535;SDS011;23379;51.554;6.736;2024-02-26T11:32:12;19.50;;;10.23;;
37535;SDS011;23379;51.554;6.736;2024-02-26T11:34:38;12.55;;;8.00;;
37535;SDS011;23379;51.554;6.736;2024-02-26T11:37:14;99.03;;;31.70;;
37535;SDS011;23379;51.554;6.736;2024-02-26T11:39:41;94.32;;;27.13;;
37535;SDS011;23379;51.554;6.736;2024-02-26T11:42:07;92.25;;;30.13;;
37535;SDS011;23379;51.554;6.736;2024-02-26T11:44:34;59.97;;;20.55;;
37535;SDS011;23379;51.554;6.736;2024-02-26T11:49:37;125.22;;;33.13;;
37535;SDS011;23379;51.554;6.736;2024-02-26T11:52:04;116.88;;;31.95;;
37535;SDS011;23379;51.554;6.736;2024-02-26T11:54:51;102.10;;;31.67;;
37535;SDS011;23379;51.554;6.736;2024-02-26T12:00:14;37.78;;;14.85;;
37535;SDS011;23379;51.554;6.736;2024-02-26T12:05:13;25.25;;;11.77;;
37535;SDS011;23379;51.554;6.736;2024-02-26T12:07:49;33.53;;;16.48;;
37535;SDS011;23379;51.554;6.736;2024-02-26T12:15:23;25.92;;;14.63;;
37535;SDS011;23379;51.554;6.736;2024-02-26T12:17:48;17.10;;;10.07;;
37535;SDS011;23379;51.554;6.736;2024-02-26T12:20:15;18.77;;;10.77;;
37535;SDS011;23379;51.554;6.736;2024-02-26T12:22:44;17.77;;;10.70;;
37535;SDS011;23379;51.554;6.736;2024-02-26T12:25:12;18.08;;;10.00;;
37535;SDS011;23379;51.554;6.736;2024-02-26T12:27:38;20.05;;;8.98;;
37535;SDS011;23379;51.554;6.736;2024-02-26T12:30:03;14.00;;;8.85;;
37535;SDS011;23379;51.554;6.736;2024-02-26T12:32:29;12.52;;;7.68;;
37535;SDS011;23379;51.554;6.736;2024-02-26T12:34:56;17.25;;;10.65;;
37535;SDS011;23379;51.554;6.736;2024-02-26T12:37:21;19.23;;;10.57;;
37535;SDS011;23379;51.554;6.736;2024-02-26T12:39:47;14.65;;;9.07;;
37535;SDS011;23379;51.554;6.736;2024-02-26T12:42:12;13.02;;;7.25;;
37535;SDS011;23379;51.554;6.736;2024-02-26T12:44:39;8.48;;;5.95;;
37535;SDS011;23379;51.554;6.736;2024-02-26T12:47:04;9.52;;;6.78;;
37535;SDS011;23379;51.554;6.736;2024-02-26T12:49:30;12.23;;;8.10;;
37535;SDS011;23379;51.554;6.736;2024-02-26T12:51:56;8.48;;;6.65;;
37535;SDS011;23379;51.554;6.736;2024-02-26T12:54:27;7.25;;;6.07;;
37535;SDS011;23379;51.554;6.736;2024-02-26T12:56:56;10.40;;;6.30;;
37535;SDS011;23379;51.554;6.736;2024-02-26T12:59:23;8.32;;;5.90;;
37535;SDS011;23379;51.554;6.736;2024-02-26T13:01:48;9.50;;;6.38;;
37535;SDS011;23379;51.554;6.736;2024-02-26T13:04:14;10.50;;;5.93;;
37535;SDS011;23379;51.554;6.736;2024-02-26T13:06:40;7.13;;;5.50;;
37535;SDS011;23379;51.554;6.736;2024-02-26T13:09:06;7.13;;;5.57;;
37535;SDS011;23379;51.554;6.736;2024-02-26T13:11:31;6.43;;;5.57;;
37535;SDS011;23379;51.554;6.736;2024-02-26T13:13:58;6.45;;;5.68;;
37535;SDS011;23379;51.554;6.736;2024-02-26T13:16:24;5.28;;;4.22;;
37535;SDS011;23379;51.554;6.736;2024-02-26T13:18:50;6.95;;;5.03;;
37535;SDS011;23379;51.554;6.736;2024-02-26T13:21:16;7.07;;;5.05;;
37535;SDS011;23379;51.554;6.736;2024-02-26T13:23:43;9.57;;;5.25;;
37535;SDS011;23379;51.554;6.736;2024-02-26T13:26:14;7.85;;;4.82;;
37535;SDS011;23379;51.554;6.736;2024-02-26T13:28:39;5.97;;;4.68;;
37535;SDS011;23379;51.554;6.736;2024-02-26T13:31:05;6.72;;;4.65;;
37535;SDS011;23379;51.554;6.736;2024-02-26T13:33:32;7.75;;;4.43;;
37535;SDS011;23379;51.554;6.736;2024-02-26T13:35:59;4.70;;;4.30;;
37535;SDS011;23379;51.554;6.736;2024-02-26T13:38:25;4.82;;;4.32;;
37535;SDS011;23379;51.554;6.736;2024-02-26T13:40:52;8.13;;;4.75;;
37535;SDS011;23379;51.554;6.736;2024-02-26T13:43:18;12.27;;;4.13;;
37535;SDS011;23379;51.554;6.736;2024-02-26T13:45:44;5.57;;;4.13;;
37535;SDS011;23379;51.554;6.736;2024-02-26T13:48:10;5.68;;;3.80;;
37535;SDS011;23379;51.554;6.736;2024-02-26T13:50:36;5.82;;;3.80;;
37535;SDS011;23379;51.554;6.736;2024-02-26T13:53:05;4.53;;;4.07;;
37535;SDS011;23379;51.554;6.736;2024-02-26T13:55:31;4.40;;;4.00;;
37535;SDS011;23379;51.554;6.736;2024-02-26T13:57:57;4.63;;;3.88;;
37535;SDS011;23379;51.554;6.736;2024-02-26T14:00:23;7.78;;;4.50;;
37535;SDS011;23379;51.554;6.736;2024-02-26T14:02:52;7.40;;;4.25;;
37535;SDS011;23379;51.554;6.736;2024-02-26T14:05:17;4.88;;;4.30;;
37535;SDS011;23379;51.554;6.736;2024-02-26T14:07:43;5.47;;;4.13;;
37535;SDS011;23379;51.554;6.736;2024-02-26T14:10:08;5.70;;;3.75;;
37535;SDS011;23379;51.554;6.736;2024-02-26T14:12:39;4.85;;;4.20;;
37535;SDS011;23379;51.554;6.736;2024-02-26T14:15:08;4.43;;;3.72;;
37535;SDS011;23379;51.554;6.736;2024-02-26T14:17:35;5.00;;;4.50;;
37535;SDS011;23379;51.554;6.736;2024-02-26T14:20:00;5.38;;;4.30;;
37535;SDS011;23379;51.554;6.736;2024-02-26T14:22:27;5.50;;;4.28;;
37535;SDS011;23379;51.554;6.736;2024-02-26T14:24:52;5.60;;;4.18;;
37535;SDS011;23379;51.554;6.736;2024-02-26T14:27:18;5.85;;;4.82;;
37535;SDS011;23379;51.554;6.736;2024-02-26T14:29:47;11.13;;;5.57;;
37535;SDS011;23379;51.554;6.736;2024-02-26T14:32:12;6.15;;;5.50;;
37535;SDS011;23379;51.554;6.736;2024-02-26T14:34:38;6.85;;;5.40;;
37535;SDS011;23379;51.554;6.736;2024-02-26T14:37:03;6.93;;;5.90;;
37535;SDS011;23379;51.554;6.736;2024-02-26T14:39:29;6.15;;;5.03;;
37535;SDS011;23379;51.554;6.736;2024-02-26T14:41:57;8.13;;;5.32;;
37535;SDS011;23379;51.554;6.736;2024-02-26T14:44:22;11.13;;;5.68;;
37535;SDS011;23379;51.554;6.736;2024-02-26T14:46:49;7.38;;;5.65;;
37535;SDS011;23379;51.554;6.736;2024-02-26T14:49:14;6.78;;;6.07;;